createdAt,value
2022-09-28T00:01:07.424Z,8.40
2022-09-28T00:03:35.937Z,8.42
2022-09-28T00:06:04.887Z,8.45
2022-09-28T00:08:32.837Z,8.48
2022-09-28T00:11:00.681Z,8.50
2022-09-28T00:13:29.480Z,8.50
2022-09-28T00:16:04.220Z,8.53
2022-09-28T00:18:32.359Z,8.55
2022-09-28T00:21:05.755Z,8.56
2022-09-28T00:23:34.344Z,8.59
2022-09-28T00:26:05.890Z,8.60
2022-09-28T00:28:33.841Z,8.62
2022-09-28T00:31:03.106Z,8.63
2022-09-28T00:33:31.057Z,8.64
2022-09-28T00:35:59.807Z,8.66
2022-09-28T00:38:29.370Z,8.67
2022-09-28T00:40:57.821Z,8.65
2022-09-28T00:43:26.388Z,8.70
2022-09-28T00:46:00.198Z,8.73
2022-09-28T00:48:33.810Z,8.72
2022-09-28T00:51:05.476Z,8.74
2022-09-28T00:53:36.492Z,8.76
2022-09-28T00:56:09.083Z,8.73
2022-09-28T00:58:42.376Z,8.74
2022-09-28T01:01:10.463Z,8.76
2022-09-28T01:03:41.281Z,8.79
2022-09-28T01:06:10.434Z,8.79
2022-09-28T01:08:39.983Z,8.79
2022-09-28T01:11:07.913Z,8.76
2022-09-28T01:13:36.078Z,8.80
2022-09-28T01:16:14.479Z,8.76
2022-09-28T01:18:53.235Z,8.79
2022-09-28T01:21:22.466Z,8.81
2022-09-28T01:24:10.298Z,8.83
2022-09-28T01:27:06.935Z,8.84
2022-09-28T01:29:44.540Z,8.84
2022-09-28T01:32:27.014Z,8.86
2022-09-28T01:35:01.012Z,8.88
2022-09-28T01:37:36.315Z,8.88
2022-09-28T01:40:07.902Z,8.89
2022-09-28T01:42:39.995Z,8.93
2022-09-28T01:45:15.525Z,8.97
2022-09-28T01:47:46.567Z,8.94
2022-09-28T01:50:18.686Z,8.95
2022-09-28T01:52:52.296Z,8.99
2022-09-28T01:55:27.520Z,9.00
2022-09-28T01:58:00.928Z,9.00
2022-09-28T02:00:29.561Z,8.95
2022-09-28T02:03:02.918Z,9.01
2022-09-28T02:05:40.814Z,9.01
2022-09-28T02:08:14.838Z,9.01
2022-09-28T02:10:47.392Z,9.07
2022-09-28T02:13:21.909Z,9.07
2022-09-28T02:15:54.887Z,9.09
2022-09-28T02:18:22.898Z,9.07
2022-09-28T02:21:07.566Z,9.08
2022-09-28T02:23:39.160Z,9.04
2022-09-28T02:26:13.076Z,9.09
2022-09-28T02:28:42.831Z,9.12
2022-09-28T02:31:10.760Z,9.13
2022-09-28T02:33:44.651Z,9.10
2022-09-28T02:36:12.684Z,9.14
2022-09-28T02:38:40.516Z,9.10
2022-09-28T02:41:18.773Z,9.12
2022-09-28T02:43:57.532Z,9.18
2022-09-28T02:46:30.888Z,9.13
2022-09-28T02:49:21.786Z,9.14
2022-09-28T02:52:09.277Z,9.17
2022-09-28T02:54:57.486Z,9.16
2022-09-28T02:57:39.169Z,9.19
2022-09-28T03:00:12.659Z,9.17
2022-09-28T03:02:50.811Z,9.20
2022-09-28T03:05:23.422Z,9.19
2022-09-28T03:08:00.357Z,9.21
2022-09-28T03:10:34.868Z,9.20
2022-09-28T03:13:04.615Z,9.16
2022-09-28T03:15:35.954Z,9.19
2022-09-28T03:18:04.045Z,9.20
2022-09-28T03:20:33.453Z,9.19
2022-09-28T03:25:51.005Z,9.21
2022-09-28T03:28:19.472Z,9.18
2022-09-28T03:30:50.563Z,9.17
2022-09-28T03:33:19.756Z,9.16
2022-09-28T03:35:48.476Z,9.16
2022-09-28T03:38:17.220Z,9.18
2022-09-28T03:40:45.776Z,9.18
2022-09-28T03:43:13.606Z,9.16
2022-09-28T03:45:42.161Z,9.15
2022-09-28T03:48:11.344Z,9.14
2022-09-28T03:50:39.138Z,9.16
2022-09-28T03:53:07.134Z,9.16
2022-09-28T03:55:34.948Z,9.15
2022-09-28T03:58:02.839Z,9.16
2022-09-28T04:00:30.964Z,9.17
2022-09-28T04:02:58.902Z,9.15
2022-09-28T04:05:28.301Z,9.11
2022-09-28T04:07:57.766Z,9.09
2022-09-28T04:10:25.856Z,9.00
2022-09-28T04:12:56.172Z,8.85
2022-09-28T04:15:24.338Z,8.97
2022-09-28T04:17:52.695Z,8.89
2022-09-28T04:20:48.154Z,8.93
2022-09-28T04:23:16.254Z,8.91
2022-09-28T04:25:48.617Z,8.92
2022-09-28T04:28:34.308Z,8.85
2022-09-28T04:31:02.174Z,8.85
2022-09-28T04:33:30.129Z,8.85
2022-09-28T04:35:59.302Z,8.81
2022-09-28T04:38:48.726Z,8.82
2022-09-28T04:41:15.423Z,8.73
2022-09-28T04:43:43.891Z,8.76
2022-09-28T04:46:12.784Z,8.69
2022-09-28T04:48:47.650Z,8.71
2022-09-28T04:51:34.516Z,8.53
2022-09-28T04:54:02.799Z,8.67
2022-09-28T04:56:30.815Z,8.59
2022-09-28T04:58:58.846Z,8.63
2022-09-28T05:01:26.918Z,8.61
2022-09-28T05:04:14.781Z,8.51
2022-09-28T05:06:58.787Z,8.50
2022-09-28T05:09:26.709Z,8.53
2022-09-28T05:11:54.483Z,8.52
2022-09-28T05:14:25.576Z,8.52
2022-09-28T05:16:53.754Z,8.49
2022-09-28T05:19:27.441Z,8.54
2022-09-28T05:22:04.464Z,8.58
2022-09-28T05:24:37.511Z,8.53
2022-09-28T05:27:05.744Z,8.59
2022-09-28T05:29:33.645Z,8.54
2022-09-28T05:32:19.850Z,8.53
2022-09-28T05:35:01.075Z,8.53
2022-09-28T05:37:42.311Z,8.53
2022-09-28T05:40:11.347Z,8.54
2022-09-28T05:42:40.524Z,8.52
2022-09-28T05:45:09.662Z,8.54
2022-09-28T05:47:39.721Z,8.42
2022-09-28T05:50:11.740Z,8.52
2022-09-28T05:52:41.809Z,8.48
2022-09-28T05:55:10.450Z,8.50
2022-09-28T05:57:38.330Z,8.51
2022-09-28T06:00:08.735Z,8.51
2022-09-28T06:02:57.121Z,8.54
2022-09-28T06:05:25.566Z,8.43
2022-09-28T06:07:56.777Z,8.45
2022-09-28T06:10:25.301Z,8.49
2022-09-28T06:12:58.399Z,8.53
2022-09-28T06:15:28.064Z,8.51
2022-09-28T06:17:58.466Z,8.53
2022-09-28T06:20:58.989Z,8.59
2022-09-28T06:23:36.018Z,8.59
2022-09-28T06:26:03.869Z,8.64
2022-09-28T06:28:31.848Z,8.65
2022-09-28T06:31:00.857Z,8.66
2022-09-28T06:33:30.207Z,8.68
2022-09-28T06:35:59.970Z,8.65
2022-09-28T06:38:27.794Z,8.72
2022-09-28T06:40:58.001Z,8.76
2022-09-28T06:43:32.112Z,8.83
2022-09-28T06:46:14.153Z,8.83
2022-09-28T06:48:51.160Z,8.86
2022-09-28T06:51:22.639Z,8.90
2022-09-28T06:54:08.142Z,8.88
2022-09-28T06:56:51.151Z,8.91
2022-09-28T06:59:20.572Z,8.89
2022-09-28T07:01:48.588Z,8.76
2022-09-28T07:04:43.867Z,8.78
2022-09-28T07:07:31.290Z,8.70
2022-09-28T07:10:23.392Z,8.66
2022-09-28T07:13:33.398Z,8.68
2022-09-28T07:16:08.020Z,8.55
2022-09-28T07:18:37.289Z,8.62
2022-09-28T07:21:08.177Z,8.62
2022-09-28T07:23:49.936Z,8.61
2022-09-28T07:26:46.736Z,8.54
2022-09-28T07:29:24.751Z,8.61
2022-09-28T07:32:18.708Z,8.65
2022-09-28T07:35:04.957Z,8.68
2022-09-28T07:37:41.239Z,8.67
2022-09-28T07:40:27.923Z,8.76
2022-09-28T07:42:56.193Z,8.82
2022-09-28T07:45:25.934Z,8.84
2022-09-28T07:47:56.493Z,8.79
2022-09-28T07:50:43.091Z,8.83
2022-09-28T07:53:26.384Z,8.97
2022-09-28T07:56:23.505Z,9.00
2022-09-28T07:59:11.565Z,9.04
2022-09-28T08:02:12.002Z,8.99
2022-09-28T08:04:40.815Z,9.00
2022-09-28T08:07:10.426Z,9.06
2022-09-28T08:09:38.376Z,9.17
2022-09-28T08:12:40.720Z,9.22
2022-09-28T08:15:37.055Z,9.30
2022-09-28T08:18:18.962Z,9.40
2022-09-28T08:21:04.690Z,9.46
2022-09-28T08:23:33.097Z,9.50
2022-09-28T08:26:01.135Z,9.48
2022-09-28T08:28:29.030Z,9.47
2022-09-28T08:31:01.750Z,9.56
2022-09-28T08:33:34.475Z,9.59
2022-09-28T08:36:24.030Z,9.62
2022-09-28T08:39:30.502Z,9.57
2022-09-28T08:42:30.866Z,9.56
2022-09-28T08:45:14.749Z,9.54
2022-09-28T08:48:24.391Z,9.60
2022-09-28T08:51:18.767Z,9.51
2022-09-28T08:54:08.088Z,9.48
2022-09-28T08:56:52.901Z,9.63
2022-09-28T08:59:24.634Z,9.65
2022-09-28T09:02:04.340Z,9.61
2022-09-28T09:04:34.876Z,9.69
2022-09-28T09:07:48.321Z,9.63
2022-09-28T09:10:36.279Z,9.60
2022-09-28T09:13:12.441Z,9.65
2022-09-28T09:15:50.388Z,9.62
2022-09-28T09:18:44.001Z,9.64
2022-09-28T09:21:42.182Z,9.56
2022-09-28T09:24:27.041Z,9.64
2022-09-28T09:27:06.529Z,9.64
2022-09-28T09:29:54.334Z,9.68
2022-09-28T09:32:35.542Z,9.73
2022-09-28T09:35:30.908Z,9.81
2022-09-28T09:38:30.831Z,9.83
2022-09-28T09:41:37.001Z,9.88
2022-09-28T09:44:46.379Z,9.92
2022-09-28T09:47:42.956Z,10.05
2022-09-28T09:50:41.381Z,9.98
2022-09-28T09:53:18.901Z,10.03
2022-09-28T09:55:50.363Z,10.04
2022-09-28T09:58:50.849Z,10.13
2022-09-28T10:01:42.802Z,10.19
2022-09-28T10:04:25.947Z,10.30
2022-09-28T10:07:00.139Z,10.26
2022-09-28T10:09:33.737Z,10.34
2022-09-28T10:12:22.387Z,10.44
2022-09-28T10:14:52.401Z,10.38
2022-09-28T10:17:26.793Z,10.47
2022-09-28T10:20:14.651Z,10.46
2022-09-28T10:22:58.351Z,10.50
2022-09-28T10:25:27.608Z,10.52
2022-09-28T10:27:56.207Z,10.54
2022-09-28T10:30:26.535Z,10.60
2022-09-28T10:32:59.401Z,10.54
2022-09-28T10:35:42.911Z,10.57
2022-09-28T10:38:17.443Z,10.63
2022-09-28T10:40:47.540Z,10.69
2022-09-28T10:43:24.968Z,10.74
2022-09-28T10:46:10.201Z,10.62
2022-09-28T10:48:51.588Z,10.73
2022-09-28T10:51:21.413Z,10.77
2022-09-28T10:54:01.495Z,10.84
2022-09-28T10:56:46.672Z,10.78
2022-09-28T10:59:38.756Z,10.78
2022-09-28T11:02:26.764Z,10.88
2022-09-28T11:05:02.647Z,10.94
2022-09-28T11:07:47.293Z,10.86
2022-09-28T11:10:22.543Z,10.88
2022-09-28T11:12:52.769Z,11.01
2022-09-28T11:15:25.757Z,10.92
2022-09-28T11:17:55.694Z,10.89
2022-09-28T11:20:34.505Z,10.96
2022-09-28T11:23:20.431Z,10.93
2022-09-28T11:26:03.443Z,10.90
2022-09-28T11:28:34.406Z,10.88
2022-09-28T11:31:08.907Z,10.87
2022-09-28T11:33:48.972Z,10.83
2022-09-28T11:37:08.040Z,10.90
2022-09-28T11:39:44.951Z,10.97
2022-09-28T11:42:28.416Z,10.93
2022-09-28T11:45:05.331Z,10.93
2022-09-28T11:47:44.119Z,10.95
2022-09-28T11:50:25.238Z,10.98
2022-09-28T11:53:01.688Z,10.95
2022-09-28T11:55:35.994Z,10.99
2022-09-28T11:58:09.682Z,10.95
2022-09-28T12:00:44.697Z,10.90
2022-09-28T12:03:17.925Z,11.04
2022-09-28T12:05:52.593Z,11.12
2022-09-28T12:08:25.488Z,11.04
2022-09-28T12:11:18.737Z,11.06
2022-09-28T12:14:11.523Z,11.11
2022-09-28T12:17:05.817Z,11.14
2022-09-28T12:19:41.005Z,11.17
2022-09-28T12:22:19.260Z,11.21
2022-09-28T12:24:50.463Z,11.29
2022-09-28T12:27:24.472Z,11.27
2022-09-28T12:29:59.782Z,11.41
2022-09-28T12:32:32.443Z,11.39
2022-09-28T12:35:00.346Z,11.47
2022-09-28T12:37:40.571Z,11.46
2022-09-28T12:40:28.087Z,11.56
2022-09-28T12:43:12.188Z,11.45
2022-09-28T12:46:13.199Z,11.49
2022-09-28T12:49:36.617Z,11.48
2022-09-28T12:51:50.092Z,11.58
2022-09-28T12:54:34.439Z,11.65
2022-09-28T12:57:16.633Z,11.57
2022-09-28T13:00:01.756Z,11.65
2022-09-28T13:03:15.888Z,11.74
2022-09-28T13:06:21.054Z,11.76
2022-09-28T13:09:04.744Z,11.83
2022-09-28T13:11:42.639Z,11.81
2022-09-28T13:14:37.034Z,11.76
2022-09-28T13:17:17.043Z,11.60
2022-09-28T13:19:52.395Z,11.55
2022-09-28T13:22:31.739Z,11.61
2022-09-28T13:25:05.718Z,11.75
2022-09-28T13:27:39.711Z,11.77
2022-09-28T13:30:08.892Z,11.80
2022-09-28T13:32:38.939Z,11.89
2022-09-28T13:35:07.455Z,11.91
2022-09-28T13:37:35.459Z,11.79
2022-09-28T13:40:06.125Z,11.76
2022-09-28T13:43:10.570Z,11.77
2022-09-28T13:45:54.671Z,11.71
2022-09-28T13:48:25.613Z,11.74
2022-09-28T13:51:06.915Z,11.82
2022-09-28T13:53:51.038Z,11.86
2022-09-28T13:56:29.306Z,11.87
2022-09-28T13:59:03.322Z,11.83
2022-09-28T14:01:37.159Z,11.90
2022-09-28T14:04:17.502Z,11.90
2022-09-28T14:06:52.409Z,11.82
2022-09-28T14:09:41.428Z,11.88
2022-09-28T14:12:30.137Z,11.94
2022-09-28T14:14:59.987Z,11.96
2022-09-28T14:17:59.185Z,11.92
2022-09-28T14:20:30.262Z,11.92
2022-09-28T14:23:24.183Z,11.88
2022-09-28T14:26:15.831Z,11.94
2022-09-28T14:28:55.534Z,11.92
2022-09-28T14:31:28.048Z,11.89
2022-09-28T14:33:58.638Z,11.89
2022-09-28T14:36:47.357Z,11.87
2022-09-28T14:39:44.312Z,11.83
2022-09-28T14:42:16.578Z,11.79
2022-09-28T14:45:33.723Z,11.78
2022-09-28T14:48:21.368Z,11.82
2022-09-28T14:50:50.001Z,11.79
2022-09-28T14:53:21.772Z,11.76
2022-09-28T14:55:51.883Z,11.72
2022-09-28T14:58:23.451Z,11.74
2022-09-28T15:00:59.285Z,11.76
2022-09-28T15:03:32.684Z,11.77
2022-09-28T15:06:01.494Z,11.78
2022-09-28T15:08:47.326Z,11.80
2022-09-28T15:11:19.263Z,11.81
2022-09-28T15:13:47.130Z,11.74
2022-09-28T15:16:17.789Z,11.76
2022-09-28T15:19:20.509Z,11.78
2022-09-28T15:21:50.050Z,11.79
2022-09-28T15:24:35.250Z,11.72
2022-09-28T15:27:04.824Z,11.73
2022-09-28T15:29:33.441Z,11.68
2022-09-28T15:32:01.445Z,11.69
2022-09-28T15:34:52.438Z,11.71
2022-09-28T15:37:23.847Z,11.71
2022-09-28T15:39:53.308Z,11.65
2022-09-28T15:42:22.462Z,11.70
2022-09-28T15:45:24.831Z,11.67
2022-09-28T15:47:57.560Z,11.66
2022-09-28T15:50:30.404Z,11.66
2022-09-28T15:53:00.785Z,11.64
2022-09-28T15:55:31.619Z,11.62
2022-09-28T15:58:08.778Z,11.52
2022-09-28T16:00:36.869Z,11.53
2022-09-28T16:03:21.532Z,11.51
2022-09-28T16:05:53.385Z,11.53
2022-09-28T16:08:24.742Z,11.50
2022-09-28T16:11:01.456Z,11.50
2022-09-28T16:13:29.382Z,11.49
2022-09-28T16:15:59.705Z,11.43
2022-09-28T16:18:29.294Z,11.42
2022-09-28T16:21:28.281Z,11.41
2022-09-28T16:23:57.517Z,11.38
2022-09-28T16:26:32.095Z,11.36
2022-09-28T16:29:00.706Z,11.33
2022-09-28T16:31:34.357Z,11.28
2022-09-28T16:34:11.818Z,11.25
2022-09-28T16:36:45.427Z,11.23
2022-09-28T16:39:14.215Z,11.18
2022-09-28T16:41:44.615Z,11.16
2022-09-28T16:44:17.820Z,11.10
2022-09-28T16:46:46.578Z,11.08
2022-09-28T16:49:18.694Z,11.04
2022-09-28T16:51:48.830Z,10.97
2022-09-28T16:54:36.994Z,10.91
2022-09-28T16:57:06.726Z,10.83
2022-09-28T16:59:34.835Z,10.75
2022-09-28T17:02:02.606Z,10.65
2022-09-28T17:04:30.354Z,10.59
2022-09-28T17:06:59.566Z,10.51
2022-09-28T17:09:27.314Z,10.44
2022-09-28T17:11:56.660Z,10.35
2022-09-28T17:14:25.173Z,10.26
2022-09-28T17:17:13.707Z,10.20
2022-09-28T17:19:42.784Z,10.14
2022-09-28T17:22:12.149Z,10.05
2022-09-28T17:24:39.924Z,9.99
2022-09-28T17:27:07.907Z,9.91
2022-09-28T17:29:35.784Z,9.85
2022-09-28T17:32:04.979Z,9.81
2022-09-28T17:34:32.750Z,9.70
2022-09-28T17:37:00.569Z,9.70
2022-09-28T17:39:31.610Z,9.63
2022-09-28T17:41:59.387Z,9.57
2022-09-28T17:44:27.146Z,9.54
2022-09-28T17:46:55.013Z,9.48
2022-09-28T17:49:22.828Z,9.46
2022-09-28T17:51:52.813Z,9.47
2022-09-28T17:54:22.473Z,9.39
2022-09-28T17:56:51.794Z,9.32
2022-09-28T17:59:19.879Z,9.29
2022-09-28T18:01:48.301Z,9.25
2022-09-28T18:04:33.750Z,9.23
2022-09-28T18:07:05.407Z,9.21
2022-09-28T18:09:33.228Z,9.20
2022-09-28T18:12:05.903Z,9.20
2022-09-28T18:14:33.809Z,9.16
2022-09-28T18:17:01.641Z,9.16
2022-09-28T18:19:32.175Z,9.07
2022-09-28T18:22:01.314Z,9.03
2022-09-28T18:24:29.290Z,8.98
2022-09-28T18:26:57.085Z,8.95
2022-09-28T18:29:29.899Z,8.91
2022-09-28T18:32:00.154Z,8.93
2022-09-28T18:34:27.955Z,8.89
2022-09-28T18:36:55.836Z,8.88
2022-09-28T18:39:24.245Z,8.87
2022-09-28T18:41:52.054Z,8.84
2022-09-28T18:44:19.889Z,8.80
2022-09-28T18:46:49.109Z,8.74
2022-09-28T18:49:16.971Z,8.72
2022-09-28T18:51:44.779Z,8.68
2022-09-28T18:54:12.667Z,8.62
2022-09-28T18:56:40.568Z,8.63
2022-09-28T18:59:13.403Z,8.61
2022-09-28T19:01:42.679Z,8.57
2022-09-28T19:04:13.517Z,8.56
2022-09-28T19:06:44.389Z,8.51
2022-09-28T19:09:13.117Z,8.51
2022-09-28T19:11:41.026Z,8.48
2022-09-28T19:14:11.034Z,8.44
2022-09-28T19:16:38.883Z,8.49
2022-09-28T19:19:06.690Z,8.46
2022-09-28T19:21:35.900Z,8.38
2022-09-28T19:24:04.499Z,8.37
2022-09-28T19:26:33.036Z,8.35
2022-09-28T19:29:02.088Z,8.35
2022-09-28T19:31:30.986Z,8.29
2022-09-28T19:33:59.191Z,8.29
2022-09-28T19:36:29.338Z,8.23
2022-09-28T19:39:02.887Z,8.21
2022-09-28T19:41:51.018Z,8.24
2022-09-28T19:44:24.507Z,8.17
2022-09-28T19:46:54.680Z,8.17
2022-09-28T19:49:23.523Z,8.12
2022-09-28T19:52:12.242Z,8.08
2022-09-28T19:54:44.708Z,8.07
2022-09-28T19:57:13.211Z,8.04
2022-09-28T19:59:41.070Z,8.00
2022-09-28T20:02:11.306Z,7.95
2022-09-28T20:04:39.150Z,7.94
2022-09-28T20:07:06.951Z,7.92
2022-09-28T20:09:34.719Z,7.95
2022-09-28T20:12:04.066Z,7.95
2022-09-28T20:14:36.539Z,7.91
2022-09-28T20:17:07.352Z,7.88
2022-09-28T20:19:35.300Z,7.84
2022-09-28T20:22:03.513Z,7.88
2022-09-28T20:24:32.063Z,7.88
2022-09-28T20:27:01.127Z,7.87
2022-09-28T20:29:31.534Z,7.83
2022-09-28T20:32:00.330Z,7.78
2022-09-28T20:34:28.645Z,7.73
2022-09-28T20:36:56.499Z,7.70
2022-09-28T20:39:24.370Z,7.68
2022-09-28T20:41:52.138Z,7.60
2022-09-28T20:44:20.098Z,7.62
2022-09-28T20:46:52.340Z,7.61
2022-09-28T20:49:20.350Z,7.56
2022-09-28T20:51:48.166Z,7.56
2022-09-28T20:54:15.940Z,7.56
2022-09-28T20:56:43.744Z,7.52
2022-09-28T20:59:12.844Z,7.52
2022-09-28T21:01:41.587Z,7.50
2022-09-28T21:04:11.623Z,7.51
2022-09-28T21:06:41.637Z,7.47
2022-09-28T21:09:11.148Z,7.41
2022-09-28T21:11:39.498Z,7.48
2022-09-28T21:14:10.162Z,7.44
2022-09-28T21:16:38.375Z,7.32
2022-09-28T21:19:06.122Z,7.29
2022-09-28T21:21:35.211Z,7.27
2022-09-28T21:24:03.212Z,7.23
2022-09-28T21:26:31.843Z,7.20
2022-09-28T21:29:01.531Z,7.23
2022-09-28T21:31:32.415Z,7.18
2022-09-28T21:34:00.607Z,7.16
2022-09-28T21:36:28.433Z,7.11
2022-09-28T21:38:57.676Z,7.12
2022-09-28T21:41:26.285Z,7.06
2022-09-28T21:43:54.264Z,7.00
2022-09-28T21:46:22.157Z,6.95
2022-09-28T21:48:53.403Z,6.97
2022-09-28T21:51:21.319Z,6.97
2022-09-28T21:53:49.674Z,6.97
2022-09-28T21:56:18.918Z,6.90
2022-09-28T21:58:47.194Z,6.89
2022-09-28T22:01:18.272Z,6.88
2022-09-28T22:03:47.870Z,6.81
2022-09-28T22:06:17.044Z,6.82
2022-09-28T22:08:45.949Z,6.81
2022-09-28T22:11:16.544Z,6.74
2022-09-28T22:13:47.114Z,6.73
2022-09-28T22:16:16.434Z,6.72
2022-09-28T22:18:45.155Z,6.70
2022-09-28T22:21:15.201Z,6.72
2022-09-28T22:23:43.193Z,6.67
2022-09-28T22:26:13.805Z,6.63
2022-09-28T22:28:48.280Z,6.64
2022-09-28T22:31:17.470Z,6.59
2022-09-28T22:33:45.294Z,6.52
2022-09-28T22:36:17.012Z,6.52
2022-09-28T22:38:45.347Z,6.50
2022-09-28T22:41:14.518Z,6.48
2022-09-28T22:43:42.837Z,6.43
2022-09-28T22:46:13.946Z,6.42
2022-09-28T22:48:43.259Z,6.37
2022-09-28T22:51:11.052Z,6.38
2022-09-28T22:53:38.850Z,6.37
2022-09-28T22:56:07.660Z,6.32
2022-09-28T22:58:37.158Z,6.31
2022-09-28T23:01:09.182Z,6.29
2022-09-28T23:03:40.090Z,6.29
2022-09-28T23:06:09.068Z,6.30
2022-09-28T23:08:37.193Z,6.27
2022-09-28T23:11:05.276Z,6.27
2022-09-28T23:13:33.194Z,6.29
2022-09-28T23:16:03.448Z,6.31
2022-09-28T23:18:33.944Z,6.24
2022-09-28T23:21:06.030Z,6.29
2022-09-28T23:23:34.731Z,6.26
2022-09-28T23:26:13.693Z,6.28
2022-09-28T23:28:41.950Z,6.31
2022-09-28T23:31:11.543Z,6.31
2022-09-28T23:33:39.656Z,6.28
2022-09-28T23:36:10.172Z,6.25
2022-09-28T23:38:38.458Z,6.33
2022-09-28T23:41:06.749Z,6.33
2022-09-28T23:43:36.154Z,6.31
2022-09-28T23:46:05.416Z,6.37
2022-09-28T23:48:34.164Z,6.35
2022-09-28T23:51:02.564Z,6.39
2022-09-28T23:53:33.209Z,6.45
2022-09-28T23:56:01.775Z,6.43
2022-09-28T23:58:30.041Z,6.45
